Time;durP1;ratioP1;P1;durP2;ratioP2;P2;SDS_P1;SDS_P2;PMS_P1;PMS_P2;Temp;Humidity;BMP_temperature;BMP_pressure;BME280_temperature;BME280_humidity;BME280_pressure;Samples;Min_cycle;Max_cycle;Signal;HPM_P1;HPM_P2
2023/08/04 00:00:48;;;;;;;0.10;0.10;;;;;;;;;;5080258;28;20311;-70
2023/08/04 00:03:17;;;;;;;0.00;0.00;;;;;;;;;;5096748;28;20252;-70
2023/08/04 00:05:43;;;;;;;0.03;0.03;;;;;;;;;;5080112;28;20246;-70
2023/08/04 00:08:09;;;;;;;0.08;0.08;;;;;;;;;;5097084;28;20201;-70
2023/08/04 00:10:36;;;;;;;0.08;0.08;;;;;;;;;;5079149;28;20282;-71
2023/08/04 00:13:02;;;;;;;0.10;0.10;;;;;;;;;;5097961;28;20190;-71
2023/08/04 00:15:29;;;;;;;0.08;0.08;;;;;;;;;;5078013;28;20239;-71
2023/08/04 00:17:55;;;;;;;0.10;0.10;;;;;;;;;;5098719;28;20235;-71
2023/08/04 00:20:23;;;;;;;0.10;0.10;;;;;;;;;;5077128;28;20207;-70
2023/08/04 00:22:50;;;;;;;0.10;0.10;;;;;;;;;;5098980;28;20236;-70
2023/08/04 00:25:16;;;;;;;0.00;0.00;;;;;;;;;;5076594;28;20244;-70
2023/08/04 00:27:43;;;;;;;0.10;0.10;;;;;;;;;;5100180;28;20228;-71
2023/08/04 00:30:10;;;;;;;0.03;0.03;;;;;;;;;;5075184;28;20239;-71
2023/08/04 00:32:37;;;;;;;0.00;0.00;;;;;;;;;;5100901;28;20560;-70
2023/08/04 00:35:05;;;;;;;0.10;0.10;;;;;;;;;;5085508;28;20556;-71
2023/08/04 00:37:33;;;;;;;0.08;0.08;;;;;;;;;;5090876;28;20555;-70
2023/08/04 00:40:00;;;;;;;0.03;0.03;;;;;;;;;;5085486;28;20277;-70
2023/08/04 00:42:26;;;;;;;0.10;0.10;;;;;;;;;;5090878;28;20258;-70
2023/08/04 00:44:52;;;;;;;0.10;0.10;;;;;;;;;;5084975;28;20229;-71
2023/08/04 00:47:20;;;;;;;0.10;0.10;;;;;;;;;;5090741;28;20287;-71
2023/08/04 00:49:47;;;;;;;0.20;0.20;;;;;;;;;;5084920;28;20244;-71
2023/08/04 00:52:14;;;;;;;0.10;0.10;;;;;;;;;;5090581;28;20239;-71
2023/08/04 00:54:42;;;;;;;0.10;0.10;;;;;;;;;;5085172;28;20208;-71
2023/08/04 00:57:08;;;;;;;0.10;0.10;;;;;;;;;;5090466;28;20245;-71
2023/08/04 00:59:35;;;;;;;0.05;0.05;;;;;;;;;;5084517;28;20238;-71
2023/08/04 01:02:01;;;;;;;0.10;0.10;;;;;;;;;;5089454;28;20565;-71
2023/08/04 01:04:28;;;;;;;0.10;0.10;;;;;;;;;;5085401;28;20253;-71
2023/08/04 01:07:00;;;;;;;0.00;0.00;;;;;;;;;;5088382;28;20571;-69
2023/08/04 01:09:28;;;;;;;0.10;0.10;;;;;;;;;;5085497;28;20193;-71
2023/08/04 01:12:00;;;;;;;0.03;0.03;;;;;;;;;;5088347;28;20260;-72
2023/08/04 01:14:28;;;;;;;0.10;0.10;;;;;;;;;;5085933;28;20259;-71
2023/08/04 01:16:54;;;;;;;0.10;0.10;;;;;;;;;;5088067;28;20251;-71
2023/08/04 01:19:20;;;;;;;0.00;0.00;;;;;;;;;;5086486;28;20272;-71
2023/08/04 01:21:48;;;;;;;0.10;0.10;;;;;;;;;;5086799;28;20269;-71
2023/08/04 01:24:14;;;;;;;0.00;0.00;;;;;;;;;;5086899;28;20224;-71
2023/08/04 01:26:44;;;;;;;0.10;0.10;;;;;;;;;;5086282;28;20246;-71
2023/08/04 01:29:10;;;;;;;0.10;0.10;;;;;;;;;;5087277;28;20235;-71
2023/08/04 01:31:37;;;;;;;0.10;0.10;;;;;;;;;;5085280;28;20303;-71
2023/08/04 01:34:04;;;;;;;0.10;0.10;;;;;;;;;;5088068;28;20239;-71
2023/08/04 01:36:30;;;;;;;0.10;0.10;;;;;;;;;;5084645;28;20239;-72
2023/08/04 01:39:00;;;;;;;0.10;0.10;;;;;;;;;;5089157;28;20211;-72
2023/08/04 01:41:26;;;;;;;0.10;0.10;;;;;;;;;;5084026;28;20239;-71
2023/08/04 01:43:52;;;;;;;0.10;0.10;;;;;;;;;;5089326;28;20294;-72
2023/08/04 01:46:19;;;;;;;0.10;0.10;;;;;;;;;;5082753;28;20306;-71
2023/08/04 01:48:45;;;;;;;0.10;0.10;;;;;;;;;;5090607;28;20212;-72
2023/08/04 01:51:11;;;;;;;0.10;0.10;;;;;;;;;;5081918;28;20271;-71
2023/08/04 01:53:38;;;;;;;0.10;0.10;;;;;;;;;;5091431;28;20209;-71
2023/08/04 01:56:06;;;;;;;0.10;0.10;;;;;;;;;;5080776;28;20307;-72
2023/08/04 01:58:32;;;;;;;0.10;0.10;;;;;;;;;;5091995;28;20204;-72
2023/08/04 02:00:58;;;;;;;0.10;0.10;;;;;;;;;;5080118;28;20310;-71
2023/08/04 02:03:25;;;;;;;0.08;0.08;;;;;;;;;;5092641;28;20293;-72
2023/08/04 02:05:51;;;;;;;0.10;0.10;;;;;;;;;;5078908;28;20299;-71
2023/08/04 02:08:17;;;;;;;0.03;0.03;;;;;;;;;;5093621;28;20235;-71
2023/08/04 02:10:47;;;;;;;0.10;0.10;;;;;;;;;;5077610;28;20266;-72
2023/08/04 02:13:15;;;;;;;0.00;0.00;;;;;;;;;;5094266;28;20238;-71
2023/08/04 02:15:41;;;;;;;0.10;0.10;;;;;;;;;;5077590;28;20265;-71
2023/08/04 02:18:08;;;;;;;0.10;0.10;;;;;;;;;;5094751;28;20233;-71
2023/08/04 02:20:34;;;;;;;0.10;0.10;;;;;;;;;;5076550;28;20409;-72
2023/08/04 02:23:00;;;;;;;0.10;0.10;;;;;;;;;;5095424;28;20277;-72
2023/08/04 02:25:27;;;;;;;0.10;0.10;;;;;;;;;;5075376;28;20254;-71
2023/08/04 02:27:53;;;;;;;0.10;0.10;;;;;;;;;;5096592;28;20225;-72
2023/08/04 02:30:21;;;;;;;0.10;0.10;;;;;;;;;;5074778;28;20242;-72
2023/08/04 02:32:48;;;;;;;0.10;0.10;;;;;;;;;;5097676;28;20285;-72
2023/08/04 02:35:14;;;;;;;0.10;0.10;;;;;;;;;;5073999;28;20206;-72
2023/08/04 02:37:40;;;;;;;0.10;0.10;;;;;;;;;;5098426;28;20206;-71
2023/08/04 02:40:07;;;;;;;0.10;0.10;;;;;;;;;;5083206;28;20273;-72
2023/08/04 02:42:33;;;;;;;0.10;0.10;;;;;;;;;;5072071;28;20211;-71
2023/08/04 02:45:00;;;;;;;0.10;0.10;;;;;;;;;;5083460;28;20254;-72
2023/08/04 02:47:28;;;;;;;0.10;0.10;;;;;;;;;;5088847;28;20307;-72
2023/08/04 02:49:54;;;;;;;0.10;0.10;;;;;;;;;;5083275;28;20275;-71
2023/08/04 02:52:20;;;;;;;0.00;0.00;;;;;;;;;;5088935;28;20321;-71
2023/08/04 02:54:47;;;;;;;0.10;0.10;;;;;;;;;;5083211;28;20238;-71
2023/08/04 02:57:13;;;;;;;0.00;0.00;;;;;;;;;;5088750;28;20254;-71
2023/08/04 02:59:39;;;;;;;0.10;0.10;;;;;;;;;;5083124;28;20244;-71
2023/08/04 03:02:07;;;;;;;0.10;0.10;;;;;;;;;;5088133;28;20258;-72
2023/08/04 03:04:35;;;;;;;0.10;0.10;;;;;;;;;;5083187;28;20244;-71
2023/08/04 03:07:01;;;;;;;0.10;0.10;;;;;;;;;;5087746;28;20261;-71
2023/08/04 03:09:28;;;;;;;0.10;0.10;;;;;;;;;;5084255;28;20288;-72
2023/08/04 03:11:55;;;;;;;0.10;0.10;;;;;;;;;;5086920;28;20266;-72
2023/08/04 03:14:21;;;;;;;0.10;0.10;;;;;;;;;;5084988;28;20231;-72
2023/08/04 03:16:47;;;;;;;0.10;0.10;;;;;;;;;;5085709;28;20259;-72
2023/08/04 03:19:16;;;;;;;0.10;0.10;;;;;;;;;;5085562;28;20271;-72
2023/08/04 03:21:44;;;;;;;0.10;0.10;;;;;;;;;;5086749;28;20238;-72
2023/08/04 03:24:10;;;;;;;0.10;0.10;;;;;;;;;;5090041;28;20455;-72
2023/08/04 03:26:37;;;;;;;0.10;0.10;;;;;;;;;;5088144;28;20239;-71
2023/08/04 03:29:03;;;;;;;0.10;0.10;;;;;;;;;;5090764;28;20451;-71
2023/08/04 03:31:29;;;;;;;0.10;0.10;;;;;;;;;;5087143;28;20574;-73
2023/08/04 03:33:56;;;;;;;0.03;0.03;;;;;;;;;;5091738;28;20230;-73
2023/08/04 03:36:22;;;;;;;0.10;0.10;;;;;;;;;;5086141;28;20238;-73
2023/08/04 03:38:50;;;;;;;0.00;0.00;;;;;;;;;;5092585;28;20242;-73
2023/08/04 03:41:16;;;;;;;0.30;0.30;;;;;;;;;;5085015;28;20268;-72
2023/08/04 03:43:42;;;;;;;0.00;0.00;;;;;;;;;;5092847;28;20242;-70
2023/08/04 03:46:09;;;;;;;0.00;0.00;;;;;;;;;;5083993;28;20314;-70
2023/08/04 03:48:35;;;;;;;0.00;0.00;;;;;;;;;;5094101;28;20458;-72
2023/08/04 03:51:01;;;;;;;0.10;0.10;;;;;;;;;;5082989;28;20489;-71
2023/08/04 03:53:28;;;;;;;0.10;0.10;;;;;;;;;;5094989;28;20449;-72
2023/08/04 03:55:55;;;;;;;0.00;0.00;;;;;;;;;;5081174;28;20301;-71
2023/08/04 03:58:22;;;;;;;0.10;0.10;;;;;;;;;;5095951;28;20507;-71
2023/08/04 04:00:49;;;;;;;0.10;0.10;;;;;;;;;;5080437;28;20251;-71
2023/08/04 04:03:15;;;;;;;0.10;0.10;;;;;;;;;;5096711;28;20207;-72
2023/08/04 04:05:41;;;;;;;0.10;0.10;;;;;;;;;;5079867;28;20311;-71
2023/08/04 04:08:08;;;;;;;0.10;0.10;;;;;;;;;;5097358;28;20236;-71
2023/08/04 04:10:34;;;;;;;0.10;0.10;;;;;;;;;;5078859;28;20293;-71
2023/08/04 04:13:02;;;;;;;0.10;0.10;;;;;;;;;;5098161;28;20267;-70
2023/08/04 04:15:29;;;;;;;0.17;0.17;;;;;;;;;;5078275;28;20251;-71
2023/08/04 04:17:55;;;;;;;1.25;1.25;;;;;;;;;;5098727;28;20259;-71
2023/08/04 04:20:22;;;;;;;0.10;0.10;;;;;;;;;;5077345;28;20212;-71
2023/08/04 04:22:48;;;;;;;0.10;0.10;;;;;;;;;;5099269;28;20266;-71
2023/08/04 04:25:14;;;;;;;0.10;0.10;;;;;;;;;;5076211;28;20229;-71
2023/08/04 04:27:41;;;;;;;0.10;0.10;;;;;;;;;;5100544;28;20414;-71
2023/08/04 04:30:09;;;;;;;0.03;0.03;;;;;;;;;;5085687;28;20237;-71
2023/08/04 04:32:35;;;;;;;0.10;0.10;;;;;;;;;;5073224;28;20229;-71
2023/08/04 04:35:02;;;;;;;0.10;0.10;;;;;;;;;;5085277;28;20210;-71
2023/08/04 04:37:28;;;;;;;0.10;0.10;;;;;;;;;;5090614;28;20306;-71
2023/08/04 04:39:54;;;;;;;0.10;0.10;;;;;;;;;;5085564;28;20211;-71
2023/08/04 04:42:21;;;;;;;0.03;0.03;;;;;;;;;;5090841;28;20312;-73
2023/08/04 04:44:47;;;;;;;0.05;0.05;;;;;;;;;;5085040;28;20230;-72
2023/08/04 04:47:15;;;;;;;0.10;0.10;;;;;;;;;;5090747;28;20258;-71
2023/08/04 04:49:41;;;;;;;0.10;0.10;;;;;;;;;;5085335;28;20203;-72
2023/08/04 04:52:08;;;;;;;0.10;0.10;;;;;;;;;;5090597;28;20246;-71
2023/08/04 04:54:34;;;;;;;0.10;0.10;;;;;;;;;;5084868;28;20263;-71
2023/08/04 04:57:01;;;;;;;0.10;0.10;;;;;;;;;;5089289;28;20239;-71
2023/08/04 04:59:27;;;;;;;0.10;0.10;;;;;;;;;;5085911;28;20238;-72
2023/08/04 05:01:53;;;;;;;0.03;0.03;;;;;;;;;;5088371;28;20262;-72
2023/08/04 05:04:21;;;;;;;0.10;0.10;;;;;;;;;;5086679;28;20234;-72
2023/08/04 05:06:47;;;;;;;0.10;0.10;;;;;;;;;;5087635;28;20250;-72
2023/08/04 05:09:14;;;;;;;0.00;0.00;;;;;;;;;;5087276;28;20272;-71
2023/08/04 05:11:40;;;;;;;0.08;0.08;;;;;;;;;;5086464;28;20238;-71
2023/08/04 05:14:06;;;;;;;0.55;0.55;;;;;;;;;;5088347;28;20388;-71
2023/08/04 05:16:33;;;;;;;0.10;0.10;;;;;;;;;;5085380;28;20249;-71
2023/08/04 05:18:59;;;;;;;0.10;0.10;;;;;;;;;;5088918;28;20210;-72
2023/08/04 05:21:27;;;;;;;0.10;0.10;;;;;;;;;;5084281;28;20483;-72
2023/08/04 05:23:54;;;;;;;0.10;0.10;;;;;;;;;;5090125;28;20230;-72
2023/08/04 05:26:20;;;;;;;0.00;0.00;;;;;;;;;;5083601;28;20539;-72
2023/08/04 05:28:47;;;;;;;0.10;0.10;;;;;;;;;;5090743;28;20465;-71
2023/08/04 05:31:13;;;;;;;0.03;0.03;;;;;;;;;;5082512;28;20441;-71
2023/08/04 05:33:39;;;;;;;0.10;0.10;;;;;;;;;;5091566;28;20256;-71
2023/08/04 05:36:06;;;;;;;0.10;0.10;;;;;;;;;;5081619;28;20262;-72
2023/08/04 05:38:34;;;;;;;0.10;0.10;;;;;;;;;;5091953;28;20206;-72
2023/08/04 05:41:01;;;;;;;0.10;0.10;;;;;;;;;;5080556;28;20238;-71
2023/08/04 05:43:28;;;;;;;0.10;0.10;;;;;;;;;;5092893;28;20210;-71
2023/08/04 05:45:54;;;;;;;0.10;0.10;;;;;;;;;;5078887;28;20478;-71
2023/08/04 05:48:22;;;;;;;0.10;0.10;;;;;;;;;;5093737;28;20391;-72
2023/08/04 05:50:48;;;;;;;0.10;0.10;;;;;;;;;;5078819;28;20258;-71
2023/08/04 05:53:15;;;;;;;0.10;0.10;;;;;;;;;;5094075;28;20279;-72
2023/08/04 05:55:42;;;;;;;0.10;0.10;;;;;;;;;;5077884;28;20311;-71
2023/08/04 05:58:09;;;;;;;0.10;0.10;;;;;;;;;;5095171;28;20516;-72
2023/08/04 06:00:35;;;;;;;0.03;0.03;;;;;;;;;;5076842;28;20238;-71
2023/08/04 06:03:02;;;;;;;0.08;0.08;;;;;;;;;;5096314;28;20203;-71
2023/08/04 06:05:28;;;;;;;0.00;0.00;;;;;;;;;;5076267;28;20247;-71
2023/08/04 06:07:55;;;;;;;0.10;0.10;;;;;;;;;;5096596;28;20232;-72
2023/08/04 06:10:21;;;;;;;0.00;0.00;;;;;;;;;;5074948;28;20242;-72
2023/08/04 06:12:49;;;;;;;0.00;0.00;;;;;;;;;;5097777;28;20242;-71
2023/08/04 06:15:15;;;;;;;0.10;0.10;;;;;;;;;;5074388;28;20228;-72
2023/08/04 06:17:41;;;;;;;0.00;0.00;;;;;;;;;;5098449;28;20279;-72
2023/08/04 06:20:08;;;;;;;0.10;0.10;;;;;;;;;;5080694;28;20279;-72
2023/08/04 06:22:35;;;;;;;0.08;0.08;;;;;;;;;;5098750;28;20614;-72
2023/08/04 06:25:01;;;;;;;0.10;0.10;;;;;;;;;;5083779;28;20224;-71
2023/08/04 06:27:28;;;;;;;0.10;0.10;;;;;;;;;;5088735;28;20503;-72
2023/08/04 06:29:56;;;;;;;0.10;0.10;;;;;;;;;;5083759;28;20423;-72
2023/08/04 06:32:22;;;;;;;0.10;0.10;;;;;;;;;;5089004;28;20313;-71
2023/08/04 06:34:48;;;;;;;0.10;0.10;;;;;;;;;;5083812;28;20200;-71
2023/08/04 06:37:15;;;;;;;0.10;0.10;;;;;;;;;;5088811;28;20250;-71
2023/08/04 06:39:41;;;;;;;0.10;0.10;;;;;;;;;;5083471;28;20203;-73
2023/08/04 06:42:08;;;;;;;0.10;0.10;;;;;;;;;;5088834;28;20234;-71
2023/08/04 06:44:34;;;;;;;0.10;0.10;;;;;;;;;;5083308;28;20203;-74
2023/08/04 06:47:02;;;;;;;0.00;0.00;;;;;;;;;;5087968;28;20260;-72
2023/08/04 06:49:28;;;;;;;0.00;0.00;;;;;;;;;;5084122;28;20207;-76
2023/08/04 06:51:54;;;;;;;0.10;0.10;;;;;;;;;;5086915;28;20310;-72
2023/08/04 06:54:21;;;;;;;0.10;0.10;;;;;;;;;;5084987;28;20205;-72
2023/08/04 06:56:47;;;;;;;5.15;4.85;;;;;;;;;;5088372;28;20452;-73
2023/08/04 06:59:15;;;;;;;0.00;0.00;;;;;;;;;;5090040;28;20225;-73
2023/08/04 07:01:41;;;;;;;0.10;0.10;;;;;;;;;;5089182;28;20240;-73
2023/08/04 07:04:09;;;;;;;0.10;0.10;;;;;;;;;;5090874;28;20518;-72
2023/08/04 07:06:35;;;;;;;0.10;0.10;;;;;;;;;;5088288;28;20250;-72
2023/08/04 07:09:02;;;;;;;0.10;0.10;;;;;;;;;;5091155;28;20203;-73
2023/08/04 07:11:29;;;;;;;0.00;0.00;;;;;;;;;;5087400;28;20306;-73
2023/08/04 07:13:55;;;;;;;0.10;0.10;;;;;;;;;;5091959;28;20242;-73
2023/08/04 07:16:22;;;;;;;0.10;0.10;;;;;;;;;;5086269;28;20261;-73
2023/08/04 07:18:48;;;;;;;0.10;0.10;;;;;;;;;;5093096;28;20210;-73
2023/08/04 07:21:16;;;;;;;0.10;0.10;;;;;;;;;;5085351;28;20288;-73
2023/08/04 07:23:43;;;;;;;0.10;0.10;;;;;;;;;;5093560;28;20235;-73
2023/08/04 07:26:10;;;;;;;0.10;0.10;;;;;;;;;;5084476;28;20480;-73
2023/08/04 07:28:37;;;;;;;0.10;0.10;;;;;;;;;;5094260;28;20234;-73
2023/08/04 07:31:03;;;;;;;0.10;0.10;;;;;;;;;;5083570;28;20265;-73
2023/08/04 07:33:30;;;;;;;0.10;0.10;;;;;;;;;;5094868;28;20208;-74
2023/08/04 07:35:56;;;;;;;0.10;0.10;;;;;;;;;;5082759;28;20238;-73
2023/08/04 07:38:24;;;;;;;0.10;0.10;;;;;;;;;;5095728;28;20281;-73
2023/08/04 07:40:51;;;;;;;0.10;0.10;;;;;;;;;;5081763;28;20504;-73
2023/08/04 07:43:18;;;;;;;0.10;0.10;;;;;;;;;;5096316;28;20230;-73
2023/08/04 07:45:44;;;;;;;0.10;0.10;;;;;;;;;;5080691;28;20245;-72
2023/08/04 07:48:10;;;;;;;0.10;0.10;;;;;;;;;;5097461;28;20279;-73
2023/08/04 07:50:37;;;;;;;0.03;0.03;;;;;;;;;;5079682;28;20301;-74
2023/08/04 07:53:04;;;;;;;0.00;0.00;;;;;;;;;;5098228;28;20397;-74
2023/08/04 07:55:33;;;;;;;0.10;0.10;;;;;;;;;;5078692;28;20243;-73
2023/08/04 07:58:00;;;;;;;0.10;0.10;;;;;;;;;;5098758;28;20192;-74
2023/08/04 08:00:26;;;;;;;0.20;0.20;;;;;;;;;;5078145;28;20210;-73
2023/08/04 08:02:52;;;;;;;0.10;0.10;;;;;;;;;;5099377;28;20191;-73
2023/08/04 08:05:19;;;;;;;0.08;0.08;;;;;;;;;;5077015;28;20294;-72
2023/08/04 08:07:45;;;;;;;0.10;0.10;;;;;;;;;;5099039;28;20277;-72
2023/08/04 08:10:11;;;;;;;0.10;0.10;;;;;;;;;;5076062;28;20214;-73
2023/08/04 08:12:39;;;;;;;0.10;0.10;;;;;;;;;;5101219;28;20245;-72
2023/08/04 08:15:06;;;;;;;0.10;0.10;;;;;;;;;;5085761;28;20210;-73
2023/08/04 08:17:33;;;;;;;0.10;0.10;;;;;;;;;;5091439;28;20240;-72
2023/08/04 08:19:59;;;;;;;0.10;0.10;;;;;;;;;;5085705;28;20272;-72
2023/08/04 08:22:26;;;;;;;0.10;0.10;;;;;;;;;;5090991;28;20669;-75
2023/08/04 08:24:53;;;;;;;0.10;0.10;;;;;;;;;;5085936;28;20452;-74
2023/08/04 08:27:19;;;;;;;0.10;0.10;;;;;;;;;;5091233;28;20643;-74
2023/08/04 08:29:47;;;;;;;0.10;0.10;;;;;;;;;;5085846;28;20235;-73
2023/08/04 08:32:13;;;;;;;0.17;0.17;;;;;;;;;;5091093;28;20269;-73
2023/08/04 08:34:39;;;;;;;0.10;0.10;;;;;;;;;;5085355;28;20200;-77
2023/08/04 08:37:07;;;;;;;0.00;0.00;;;;;;;;;;5090764;28;20297;-73
2023/08/04 08:39:34;;;;;;;0.10;0.10;;;;;;;;;;5085661;28;20541;-72
2023/08/04 08:42:00;;;;;;;0.10;0.10;;;;;;;;;;5089836;28;20559;-72
2023/08/04 08:44:27;;;;;;;0.00;0.00;;;;;;;;;;5086159;28;20235;-73
2023/08/04 08:46:55;;;;;;;0.00;0.00;;;;;;;;;;5088714;28;20257;-73
2023/08/04 08:49:24;;;;;;;0.03;0.03;;;;;;;;;;5087120;28;20211;-73
2023/08/04 08:51:51;;;;;;;0.00;0.00;;;;;;;;;;5088285;28;20246;-72
2023/08/04 08:54:19;;;;;;;0.10;0.10;;;;;;;;;;5087427;28;20203;-73
2023/08/04 08:56:45;;;;;;;0.10;0.10;;;;;;;;;;5087562;28;20261;-73
2023/08/04 08:59:12;;;;;;;0.00;0.00;;;;;;;;;;5088071;28;20239;-73
2023/08/04 09:01:38;;;;;;;0.10;0.10;;;;;;;;;;5086450;28;20238;-74
2023/08/04 09:04:06;;;;;;;0.10;0.10;;;;;;;;;;5088931;28;20274;-74
2023/08/04 09:06:32;;;;;;;0.10;0.10;;;;;;;;;;5085497;28;20241;-73
2023/08/04 09:09:01;;;;;;;0.05;0.05;;;;;;;;;;5089597;28;20274;-73
2023/08/04 09:11:28;;;;;;;0.10;0.10;;;;;;;;;;5084740;28;20258;-74
2023/08/04 09:13:55;;;;;;;0.10;0.10;;;;;;;;;;5089531;28;20215;-74
2023/08/04 09:16:31;;;;;;;0.03;0.03;;;;;;;;;;5083689;28;20301;-74
2023/08/04 09:19:01;;;;;;;0.10;0.10;;;;;;;;;;5089362;28;20498;-73
2023/08/04 09:21:28;;;;;;;0.10;0.10;;;;;;;;;;5084527;28;20261;-73
2023/08/04 09:23:55;;;;;;;0.10;0.10;;;;;;;;;;5089835;28;20422;-73
2023/08/04 09:26:21;;;;;;;0.10;0.10;;;;;;;;;;5083786;28;20485;-73
2023/08/04 09:29:03;;;;;;;0.00;0.00;;;;;;;;;;5090562;28;20204;-73
2023/08/04 09:31:34;;;;;;;0.03;0.03;;;;;;;;;;5084663;28;20268;-73
2023/08/04 09:34:00;;;;;;;0.10;0.10;;;;;;;;;;5088928;28;20201;-74
2023/08/04 09:36:27;;;;;;;0.10;0.10;;;;;;;;;;5084191;28;20253;-73
2023/08/04 09:39:02;;;;;;;0.10;0.10;;;;;;;;;;5089635;28;20205;-73
2023/08/04 09:41:29;;;;;;;0.10;0.10;;;;;;;;;;5084475;28;20239;-74
2023/08/04 09:43:56;;;;;;;0.03;0.03;;;;;;;;;;5089266;28;20251;-74
2023/08/04 09:46:22;;;;;;;0.00;0.00;;;;;;;;;;5083567;28;20249;-73
2023/08/04 09:48:49;;;;;;;0.00;0.00;;;;;;;;;;5090145;28;20251;-73
2023/08/04 09:51:18;;;;;;;0.00;0.00;;;;;;;;;;5082358;28;20260;-74
2023/08/04 09:53:45;;;;;;;0.05;0.05;;;;;;;;;;5090507;28;20212;-74
2023/08/04 09:56:14;;;;;;;0.05;0.05;;;;;;;;;;5082037;28;20270;-73
2023/08/04 09:58:41;;;;;;;0.10;0.10;;;;;;;;;;5091208;28;20272;-73
2023/08/04 10:01:07;;;;;;;0.00;0.00;;;;;;;;;;5081227;28;20424;-73
2023/08/04 10:03:34;;;;;;;0.10;0.10;;;;;;;;;;5091903;28;20253;-73
2023/08/04 10:06:02;;;;;;;0.05;0.05;;;;;;;;;;5080157;28;20299;-73
2023/08/04 10:08:29;;;;;;;0.00;0.00;;;;;;;;;;5092237;28;20216;-73
2023/08/04 10:10:56;;;;;;;0.10;0.10;;;;;;;;;;5079711;28;20427;-73
2023/08/04 10:13:23;;;;;;;0.10;0.10;;;;;;;;;;5092968;28;20236;-73
2023/08/04 10:15:50;;;;;;;0.05;0.05;;;;;;;;;;5078870;28;20239;-73
2023/08/04 10:18:16;;;;;;;0.10;0.10;;;;;;;;;;5093985;28;20243;-73
2023/08/04 10:20:43;;;;;;;0.00;0.00;;;;;;;;;;5077778;28;20353;-72
2023/08/04 10:23:11;;;;;;;0.00;0.00;;;;;;;;;;5094460;28;20241;-73
2023/08/04 10:25:38;;;;;;;0.05;0.05;;;;;;;;;;5077192;28;20443;-73
2023/08/04 10:28:04;;;;;;;0.00;0.00;;;;;;;;;;5095205;28;20213;-73
2023/08/04 10:30:32;;;;;;;0.00;0.00;;;;;;;;;;5075589;28;20566;-73
2023/08/04 10:33:09;;;;;;;0.00;0.00;;;;;;;;;;5096143;28;20193;-74
2023/08/04 10:35:55;;;;;;;0.10;0.10;;;;;;;;;;5076795;28;20241;-73
2023/08/04 10:38:24;;;;;;;0.10;0.10;;;;;;;;;;5092847;28;20403;-72
2023/08/04 10:41:05;;;;;;;0.10;0.10;;;;;;;;;;5078532;28;20307;-73
2023/08/04 10:43:31;;;;;;;0.00;0.00;;;;;;;;;;5091926;28;20229;-73
2023/08/04 10:46:03;;;;;;;0.08;0.08;;;;;;;;;;5079644;28;20302;-73
2023/08/04 10:48:29;;;;;;;0.00;0.00;;;;;;;;;;5092024;28;20479;-73
2023/08/04 10:50:56;;;;;;;0.05;0.05;;;;;;;;;;5079165;28;20244;-73
2023/08/04 10:53:23;;;;;;;0.10;0.10;;;;;;;;;;5092559;28;20239;-74
2023/08/04 10:55:50;;;;;;;0.00;0.00;;;;;;;;;;5078396;28;20288;-73
2023/08/04 10:58:17;;;;;;;0.00;0.00;;;;;;;;;;5093597;28;20273;-73
2023/08/04 11:00:43;;;;;;;0.03;0.03;;;;;;;;;;5077605;28;20321;-73
2023/08/04 11:03:18;;;;;;;0.00;0.00;;;;;;;;;;5094251;28;20334;-73
2023/08/04 11:05:44;;;;;;;0.00;0.00;;;;;;;;;;5077573;28;20239;-73
2023/08/04 11:08:11;;;;;;;0.10;0.10;;;;;;;;;;5093765;28;20230;-73
2023/08/04 11:10:45;;;;;;;0.05;0.05;;;;;;;;;;5076832;28;20490;-73
2023/08/04 11:13:11;;;;;;;0.00;0.00;;;;;;;;;;5093881;28;20209;-73
2023/08/04 11:15:42;;;;;;;0.00;0.00;;;;;;;;;;5076825;28;20490;-73
2023/08/04 11:18:09;;;;;;;0.00;0.00;;;;;;;;;;5094511;28;20191;-72
2023/08/04 11:20:36;;;;;;;0.10;0.10;;;;;;;;;;5076636;28;20477;-73
2023/08/04 11:23:02;;;;;;;0.00;0.00;;;;;;;;;;5094737;28;20413;-73
2023/08/04 11:25:28;;;;;;;0.00;0.00;;;;;;;;;;5075602;28;20242;-73
2023/08/04 11:27:56;;;;;;;0.05;0.05;;;;;;;;;;5095726;28;20290;-73
2023/08/04 11:30:23;;;;;;;0.00;0.00;;;;;;;;;;5074536;28;20241;-73
2023/08/04 11:32:50;;;;;;;0.10;0.10;;;;;;;;;;5096696;28;20256;-72
2023/08/04 11:35:17;;;;;;;0.00;0.00;;;;;;;;;;5074002;28;20242;-73
2023/08/04 11:37:43;;;;;;;0.00;0.00;;;;;;;;;;5097480;28;20386;-73
2023/08/04 11:40:20;;;;;;;0.10;0.10;;;;;;;;;;5073052;28;20231;-72
2023/08/04 11:42:46;;;;;;;0.10;0.10;;;;;;;;;;5097435;28;20219;-73
2023/08/04 11:45:14;;;;;;;0.00;0.00;;;;;;;;;;5076589;28;20210;-73
2023/08/04 11:47:41;;;;;;;0.00;0.00;;;;;;;;;;5101407;28;20303;-72
2023/08/04 11:50:08;;;;;;;0.00;0.00;;;;;;;;;;5086138;28;20254;-73
2023/08/04 11:52:38;;;;;;;0.00;0.00;;;;;;;;;;5074963;28;20279;-73
2023/08/04 11:55:05;;;;;;;0.00;0.00;;;;;;;;;;5086423;28;20210;-73
2023/08/04 11:57:31;;;;;;;0.10;0.10;;;;;;;;;;5091748;28;20261;-73
2023/08/04 11:59:58;;;;;;;0.00;0.00;;;;;;;;;;5086426;28;20459;-73
2023/08/04 12:02:26;;;;;;;0.08;0.08;;;;;;;;;;5091741;28;20239;-72
2023/08/04 12:05:08;;;;;;;0.00;0.00;;;;;;;;;;5085943;28;20212;-73
2023/08/04 12:07:34;;;;;;;0.00;0.00;;;;;;;;;;5074685;28;20266;-73
2023/08/04 12:10:00;;;;;;;0.00;0.00;;;;;;;;;;5086197;28;20235;-72
2023/08/04 12:12:35;;;;;;;0.00;0.00;;;;;;;;;;5091510;28;20261;-73
2023/08/04 12:15:01;;;;;;;0.00;0.00;;;;;;;;;;5085894;28;20191;-73
2023/08/04 12:17:36;;;;;;;0.00;0.00;;;;;;;;;;5091387;28;20302;-73
2023/08/04 12:20:04;;;;;;;0.00;0.00;;;;;;;;;;5086048;28;20442;-73
2023/08/04 12:22:30;;;;;;;0.08;0.08;;;;;;;;;;5090933;28;20246;-73
2023/08/04 12:24:57;;;;;;;0.00;0.00;;;;;;;;;;5085967;28;20235;-73
2023/08/04 12:27:23;;;;;;;0.00;0.00;;;;;;;;;;5091127;28;20506;-73
2023/08/04 12:29:49;;;;;;;0.00;0.00;;;;;;;;;;5085900;28;20211;-73
2023/08/04 12:32:16;;;;;;;0.00;0.00;;;;;;;;;;5091117;28;20239;-72
2023/08/04 12:34:44;;;;;;;0.00;0.00;;;;;;;;;;5085764;28;20234;-73
2023/08/04 12:37:10;;;;;;;0.00;0.00;;;;;;;;;;5090808;28;20450;-73
2023/08/04 12:39:36;;;;;;;0.00;0.00;;;;;;;;;;5085700;28;20203;-73
2023/08/04 12:42:03;;;;;;;0.08;0.08;;;;;;;;;;5090161;28;20271;-73
2023/08/04 12:44:30;;;;;;;0.00;0.00;;;;;;;;;;5085847;28;20204;-73
2023/08/04 12:46:56;;;;;;;0.00;0.00;;;;;;;;;;5089235;28;20230;-73
2023/08/04 12:49:23;;;;;;;0.00;0.00;;;;;;;;;;5086577;28;20203;-73
2023/08/04 12:51:50;;;;;;;0.08;0.08;;;;;;;;;;5088255;28;20301;-74
2023/08/04 12:54:17;;;;;;;0.00;0.00;;;;;;;;;;5086869;28;20274;-73
2023/08/04 12:56:43;;;;;;;0.00;0.00;;;;;;;;;;5087442;28;20249;-73
2023/08/04 12:59:12;;;;;;;0.00;0.00;;;;;;;;;;5087994;28;20271;-74
2023/08/04 13:01:38;;;;;;;0.00;0.00;;;;;;;;;;5085326;28;20580;-74
2023/08/04 13:04:05;;;;;;;0.00;0.00;;;;;;;;;;5089916;28;20211;-73
2023/08/04 13:06:32;;;;;;;0.00;0.00;;;;;;;;;;5085403;28;20619;-73
2023/08/04 13:09:00;;;;;;;0.00;0.00;;;;;;;;;;5089618;28;20242;-73
2023/08/04 13:11:26;;;;;;;0.00;0.00;;;;;;;;;;5084851;28;20452;-73
2023/08/04 13:13:53;;;;;;;0.10;0.10;;;;;;;;;;5089884;28;20203;-74
2023/08/04 13:16:19;;;;;;;0.00;0.00;;;;;;;;;;5083585;28;20239;-73
2023/08/04 13:18:45;;;;;;;0.00;0.00;;;;;;;;;;5090866;28;20199;-73
2023/08/04 13:21:12;;;;;;;0.00;0.00;;;;;;;;;;5082625;28;20302;-73
2023/08/04 13:23:38;;;;;;;0.00;0.00;;;;;;;;;;5091601;28;20231;-73
2023/08/04 13:26:07;;;;;;;0.00;0.00;;;;;;;;;;5081608;28;20306;-73
2023/08/04 13:28:34;;;;;;;0.00;0.00;;;;;;;;;;5092231;28;20299;-73
2023/08/04 13:31:04;;;;;;;0.00;0.00;;;;;;;;;;5080736;28;20250;-73
2023/08/04 13:33:31;;;;;;;0.00;0.00;;;;;;;;;;5092850;28;20421;-74
2023/08/04 13:35:57;;;;;;;0.00;0.00;;;;;;;;;;5080491;28;20258;-73
2023/08/04 13:38:23;;;;;;;0.00;0.00;;;;;;;;;;5093734;28;20451;-74
2023/08/04 13:40:50;;;;;;;0.00;0.00;;;;;;;;;;5079439;28;20483;-74
2023/08/04 13:43:17;;;;;;;0.05;0.05;;;;;;;;;;5094531;28;20241;-73
2023/08/04 13:45:44;;;;;;;0.00;0.00;;;;;;;;;;5078660;28;20309;-73
2023/08/04 13:48:10;;;;;;;0.00;0.00;;;;;;;;;;5095122;28;20231;-73
2023/08/04 13:50:36;;;;;;;0.00;0.00;;;;;;;;;;5077306;28;20281;-73
2023/08/04 13:53:03;;;;;;;0.00;0.00;;;;;;;;;;5095937;28;20235;-73
2023/08/04 13:55:29;;;;;;;0.00;0.00;;;;;;;;;;5076260;28;20241;-74
2023/08/04 13:57:55;;;;;;;0.00;0.00;;;;;;;;;;5096667;28;20274;-74
2023/08/04 14:00:23;;;;;;;0.00;0.00;;;;;;;;;;5075339;28;20234;-74
2023/08/04 14:02:49;;;;;;;0.00;0.00;;;;;;;;;;5097902;28;20451;-74
2023/08/04 14:05:16;;;;;;;0.00;0.00;;;;;;;;;;5074047;28;20575;-74
2023/08/04 14:07:42;;;;;;;0.00;0.00;;;;;;;;;;5098349;28;20469;-74
2023/08/04 14:10:09;;;;;;;0.00;0.00;;;;;;;;;;5078268;28;20433;-74
2023/08/04 14:12:35;;;;;;;0.00;0.00;;;;;;;;;;5099355;28;20238;-74
2023/08/04 14:15:02;;;;;;;0.10;0.10;;;;;;;;;;5083601;28;20241;-74
2023/08/04 14:17:29;;;;;;;0.00;0.00;;;;;;;;;;5089323;28;20487;-74
2023/08/04 14:19:56;;;;;;;0.00;0.00;;;;;;;;;;5083591;28;20210;-74
2023/08/04 14:22:22;;;;;;;0.10;0.10;;;;;;;;;;5088942;28;20249;-72
2023/08/04 14:24:49;;;;;;;0.10;0.10;;;;;;;;;;5083541;28;20210;-73
2023/08/04 14:27:16;;;;;;;0.00;0.00;;;;;;;;;;5089001;28;20242;-73
2023/08/04 14:29:42;;;;;;;0.00;0.00;;;;;;;;;;5083809;28;20249;-73
2023/08/04 14:32:08;;;;;;;0.00;0.00;;;;;;;;;;5089026;28;20239;-74
2023/08/04 14:34:36;;;;;;;0.00;0.00;;;;;;;;;;5083724;28;20502;-74
2023/08/04 14:37:03;;;;;;;0.08;0.08;;;;;;;;;;5088176;28;20241;-74
2023/08/04 14:39:29;;;;;;;0.00;0.00;;;;;;;;;;5084039;28;20274;-74
2023/08/04 14:41:56;;;;;;;0.10;0.10;;;;;;;;;;5087312;28;20302;-75